Gratiot, Wisconsin
Current Conditions -  °F | °C
As of 6:35 PM on Friday 24 Oct 2014 (Local Time) from KEFT Reporting Station
Broken Clouds Broken Clouds  
Wind Chill: 13°   Ceiling: 3500
Heat Index: 13°   Visibility: 10mi
Dew Point: 10°   Wind: 6mph
Humidity: 82%   Direction: 180°S
Pressure: 29.92"   Gusts: NA
Location:  42.58°N, 90.02°W
Report Text: KEFT 242335Z AUTO 18005KT 10SM BKN035 BKN046 BKN055 13/10 A2992 RMK AO2
Loading
Personal Weather Stations






























Interactive Weather Map
Tropical Storm Tracking
New forecast layout! Learn more

10-Day Weather Forecast

Advertisements
Track Severe Weather on mobile